Time;durP1;ratioP1;P1;durP2;ratioP2;P2;SDS_P1;SDS_P2;PMS_P1;PMS_P2;Temp;Humidity;BMP_temperature;BMP_pressure;BME280_temperature;BME280_humidity;BME280_pressure;Samples;Min_cycle;Max_cycle;Signal;HPM_P1;HPM_P2
2023/06/07 00:01:52;;;;;;;11.77;6.60;;;;;;;12.79;79.70;102176.75;5094444;28;20045;-82
2023/06/07 00:04:19;;;;;;;13.95;6.72;;;;;;;12.74;80.73;102173.81;5091978;28;20044;-82
2023/06/07 00:06:47;;;;;;;12.98;7.18;;;;;;;12.69;80.50;102181.16;5093307;28;20040;-82
2023/06/07 00:09:13;;;;;;;14.25;7.65;;;;;;;12.68;80.78;102178.91;5101665;28;20044;-82
2023/06/07 00:11:40;;;;;;;15.70;7.47;;;;;;;12.64;81.00;102192.34;5093801;28;20515;-82
2023/06/07 00:14:07;;;;;;;9.05;6.78;;;;;;;12.61;80.84;102192.44;5094051;28;20040;-82
2023/06/07 00:16:33;;;;;;;9.00;7.05;;;;;;;12.58;81.11;102191.34;5093419;28;20048;-81
2023/06/07 00:19:01;;;;;;;11.18;6.53;;;;;;;12.56;81.08;102199.03;5093847;28;20052;-81
2023/06/07 00:21:28;;;;;;;13.68;7.20;;;;;;;12.53;81.20;102199.13;5092025;28;20527;-81
2023/06/07 00:23:54;;;;;;;8.23;6.47;;;;;;;12.48;81.18;102204.94;5092506;28;20044;-82
2023/06/07 00:26:21;;;;;;;16.25;7.45;;;;;;;12.45;81.71;102200.44;5091455;28;20045;-82
2023/06/07 00:28:49;;;;;;;14.13;7.03;;;;;;;12.45;81.68;102200.44;5075855;28;20079;-82
2023/06/07 00:31:16;;;;;;;10.02;6.78;;;;;;;12.40;81.85;102195.59;5091559;28;20044;-80
2023/06/07 00:33:43;;;;;;;11.98;6.82;;;;;;;12.37;82.65;102188.44;5093666;28;20467;-81
2023/06/07 00:36:09;;;;;;;9.27;6.72;;;;;;;12.35;82.27;102191.53;5074909;28;20059;-81
2023/06/07 00:38:36;;;;;;;10.68;7.13;;;;;;;12.32;82.23;102195.03;5092127;28;20072;-81
2023/06/07 00:41:02;;;;;;;10.45;7.05;;;;;;;12.30;82.67;102197.38;5097569;28;20044;-81
2023/06/07 00:43:29;;;;;;;12.65;6.75;;;;;;;12.27;82.50;102196.28;5096087;28;20378;-81
2023/06/07 00:45:56;;;;;;;12.82;6.50;;;;;;;12.25;82.88;102195.94;5092018;28;20049;-82
2023/06/07 00:48:22;;;;;;;12.55;6.60;;;;;;;12.20;83.03;102191.09;5091734;28;20056;-82
2023/06/07 00:50:49;;;;;;;13.82;6.50;;;;;;;12.14;83.18;102192.00;5091896;28;20139;-83
2023/06/07 00:53:16;;;;;;;9.85;6.45;;;;;;;12.12;83.53;102200.41;5091342;28;20048;-81
2023/06/07 00:55:43;;;;;;;11.35;6.82;;;;;;;12.10;83.49;102196.66;5092824;28;20044;-82
2023/06/07 00:58:10;;;;;;;8.77;6.55;;;;;;;12.11;83.72;102196.25;5074583;28;20047;-82
2023/06/07 01:00:37;;;;;;;11.63;5.63;;;;;;;12.08;83.45;102190.97;5091779;28;20103;-82
2023/06/07 01:03:05;;;;;;;12.90;6.57;;;;;;;12.03;83.68;102190.28;5092050;28;20048;-81
2023/06/07 01:05:32;;;;;;;9.88;7.07;;;;;;;12.02;83.61;102199.47;5092792;28;20043;-81
2023/06/07 01:08:00;;;;;;;9.43;6.53;;;;;;;11.97;83.88;102199.22;5074647;28;20080;-81
2023/06/07 01:10:27;;;;;;;15.02;6.88;;;;;;;11.96;84.40;102192.38;5091995;28;20260;-82
2023/06/07 01:12:54;;;;;;;14.10;6.28;;;;;;;11.93;84.49;102201.22;5091024;28;20161;-83
2023/06/07 01:15:22;;;;;;;8.60;6.47;;;;;;;11.91;84.16;102192.88;5099663;28;20040;-83
2023/06/07 01:17:51;;;;;;;14.90;6.20;;;;;;;11.89;84.62;102198.63;5091489;28;20044;-80
2023/06/07 01:20:23;;;;;;;12.13;6.60;;;;;;;11.88;84.84;102196.34;5074218;28;20049;-82
2023/06/07 01:22:51;;;;;;;;;;;;;;;11.86;83.12;102188.75;5093529;28;20485;-82
2023/06/07 01:25:19;;;;;;;14.68;6.05;;;;;;;11.83;84.29;102183.50;5090750;28;19971;-81
2023/06/07 01:27:46;;;;;;;17.27;6.80;;;;;;;11.80;84.79;102184.31;5092865;28;20051;-82
2023/06/07 01:30:13;;;;;;;10.27;5.75;;;;;;;11.77;84.65;102187.81;5092289;28;20044;-82
2023/06/07 01:32:41;;;;;;;9.35;6.07;;;;;;;11.74;84.76;102186.69;5092780;28;20167;-82
2023/06/07 01:35:10;;;;;;;9.48;5.95;;;;;;;11.72;85.31;102190.94;5092146;28;20044;-82
2023/06/07 01:37:38;;;;;;;16.17;6.45;;;;;;;11.68;85.60;102189.09;5092285;28;20542;-82
2023/06/07 01:40:07;;;;;;;10.93;6.78;;;;;;;11.65;85.73;102189.91;5090866;28;20072;-82
2023/06/07 01:42:38;;;;;;;9.60;6.25;;;;;;;11.61;85.99;102189.22;5090791;28;20045;-81
2023/06/07 01:45:05;;;;;;;13.13;5.63;;;;;;;11.57;86.16;102191.22;5090985;28;20049;-81
2023/06/07 01:47:34;;;;;;;10.00;5.93;;;;;;;11.56;86.21;102183.66;5094203;28;20057;-81
2023/06/07 01:50:00;;;;;;;11.20;5.45;;;;;;;11.53;86.71;102192.47;5095185;28;20094;-80
2023/06/07 01:52:28;;;;;;;9.88;5.72;;;;;;;11.51;86.36;102184.13;5091650;28;20048;-81
2023/06/07 01:54:55;;;;;;;11.38;5.55;;;;;;;11.50;86.19;102188.69;5092253;28;20044;-81
2023/06/07 01:58:00;;;;;;;17.00;6.13;;;;;;;11.49;86.31;102173.84;5091907;28;20049;-82
2023/06/07 02:00:38;;;;;;;9.23;5.60;;;;;;;11.45;86.30;102178.50;5092082;28;20492;-82
2023/06/07 02:03:14;;;;;;;11.05;5.30;;;;;;;11.44;86.51;102182.34;5091830;28;20524;-81
2023/06/07 02:05:47;;;;;;;14.85;6.05;;;;;;;11.41;86.73;102177.81;5090854;28;20395;-82
2023/06/07 02:08:32;;;;;;;7.22;5.43;;;;;;;11.39;86.91;102182.06;5089750;28;20053;-82
2023/06/07 02:11:01;;;;;;;11.82;6.05;;;;;;;11.38;87.18;102186.63;5090848;28;20542;-81
2023/06/07 02:13:33;;;;;;;13.68;6.25;;;;;;;11.36;86.84;102173.72;5091137;28;20498;-82
2023/06/07 02:16:00;;;;;;;8.43;5.05;;;;;;;11.31;87.24;102174.19;5090422;28;20483;-82
2023/06/07 02:18:26;;;;;;;9.15;5.47;;;;;;;11.28;88.16;102172.34;5090456;28;20048;-82
2023/06/07 02:20:53;;;;;;;11.63;5.60;;;;;;;11.27;87.84;102175.41;5097476;28;20055;-81
2023/06/07 02:23:21;;;;;;;10.00;5.53;;;;;;;11.25;87.54;102175.81;5096675;28;20098;-82
2023/06/07 02:25:47;;;;;;;12.77;6.10;;;;;;;11.21;87.93;102177.78;5094032;28;20072;-82
2023/06/07 02:28:16;;;;;;;11.48;5.60;;;;;;;11.19;88.02;102171.38;5094919;28;20041;-81
2023/06/07 02:30:42;;;;;;;12.57;5.97;;;;;;;11.16;88.14;102169.53;5094230;28;20040;-81
2023/06/07 02:33:13;;;;;;;12.68;5.88;;;;;;;11.15;88.21;102168.78;5094136;28;20477;-82
2023/06/07 02:35:44;;;;;;;10.05;5.30;;;;;;;11.15;87.85;102168.03;5076595;28;20106;-81
2023/06/07 02:38:11;;;;;;;12.20;5.88;;;;;;;11.12;88.39;102164.28;5094690;28;20464;-82
2023/06/07 02:40:38;;;;;;;10.57;5.80;;;;;;;11.11;88.46;102167.34;5093857;28;20048;-82
2023/06/07 02:43:04;;;;;;;11.73;6.03;;;;;;;11.10;88.52;102168.50;5093884;28;20064;-81
2023/06/07 02:45:31;;;;;;;16.17;6.22;;;;;;;11.08;89.01;102170.81;5093225;28;20072;-80
2023/06/07 02:47:57;;;;;;;11.30;5.95;;;;;;;11.05;88.97;102174.31;5093662;28;20044;-81
2023/06/07 02:50:26;;;;;;;9.63;6.03;;;;;;;11.05;88.94;102174.31;5093021;28;20044;-81
2023/06/07 02:52:55;;;;;;;13.30;6.20;;;;;;;11.02;89.02;102167.88;5077140;28;20114;-80
2023/06/07 02:55:21;;;;;;;9.43;6.00;;;;;;;11.01;88.96;102172.44;5097008;28;20051;-80
2023/06/07 02:57:48;;;;;;;12.30;6.47;;;;;;;11.00;89.19;102173.59;5095101;28;20048;-80
2023/06/07 03:00:17;;;;;;;11.23;6.10;;;;;;;10.99;89.17;102182.00;5093059;28;20044;-80
2023/06/07 03:02:58;;;;;;;11.87;6.10;;;;;;;10.97;89.71;102181.66;5093523;28;20044;-81
2023/06/07 03:05:26;;;;;;;13.85;6.00;;;;;;;10.97;89.91;102179.75;5092439;28;20052;-81
2023/06/07 03:07:57;;;;;;;9.88;6.80;;;;;;;10.96;89.73;102180.16;5093424;28;20088;-80
2023/06/07 03:10:24;;;;;;;14.07;6.68;;;;;;;10.95;89.71;102179.41;5092976;28;20516;-81
2023/06/07 03:12:51;;;;;;;9.48;6.10;;;;;;;10.96;89.50;102188.91;5076467;28;20579;-81
2023/06/07 03:15:18;;;;;;;11.02;6.05;;;;;;;10.96;90.09;102190.81;5075627;28;20497;-81
2023/06/07 03:17:45;;;;;;;11.63;6.15;;;;;;;10.92;89.77;102182.88;5076467;28;20045;-81
2023/06/07 03:20:13;;;;;;;10.68;6.10;;;;;;;10.92;90.08;102180.22;5092023;28;20535;-81
2023/06/07 03:22:41;;;;;;;11.77;6.28;;;;;;;10.93;89.94;102183.63;5092854;28;20098;-80
2023/06/07 03:25:11;;;;;;;12.15;6.18;;;;;;;10.92;90.01;102182.13;5076653;28;20044;-81
2023/06/07 03:27:37;;;;;;;13.27;6.22;;;;;;;10.89;90.12;102175.69;5101027;28;20057;-81
2023/06/07 03:30:21;;;;;;;9.60;6.15;;;;;;;10.89;90.98;102180.28;5092111;28;20511;-81
2023/06/07 03:32:49;;;;;;;13.30;6.35;;;;;;;10.90;90.16;102179.13;5092954;28;20072;-80
2023/06/07 03:35:17;;;;;;;12.07;6.15;;;;;;;10.90;90.65;102179.88;5091791;28;20052;-81
2023/06/07 03:37:45;;;;;;;7.60;5.50;;;;;;;10.92;90.46;102182.13;5092906;28;20052;-80
2023/06/07 03:40:13;;;;;;;8.18;5.90;;;;;;;10.89;90.65;102181.03;5092188;28;20045;-81
2023/06/07 03:42:40;;;;;;;11.35;6.20;;;;;;;10.89;91.08;102185.59;5093049;28;20402;-81
2023/06/07 03:45:08;;;;;;;16.75;6.32;;;;;;;10.90;90.75;102184.44;5092202;28;20102;-80
2023/06/07 03:47:35;;;;;;;15.63;6.25;;;;;;;10.92;90.78;102187.44;5092210;28;20055;-80
2023/06/07 03:50:01;;;;;;;10.90;5.20;;;;;;;10.93;90.83;102186.28;5092601;28;20040;-81
2023/06/07 03:52:32;;;;;;;13.32;6.05;;;;;;;10.94;91.07;102185.13;5092647;28;20472;-81
2023/06/07 03:54:59;;;;;;;9.82;4.95;;;;;;;10.94;90.82;102188.56;5092452;28;20049;-81
2023/06/07 03:57:27;;;;;;;11.43;5.72;;;;;;;10.95;91.11;102189.31;5075148;28;20466;-81
2023/06/07 03:59:53;;;;;;;13.55;6.35;;;;;;;10.94;91.13;102191.22;5097294;28;20947;-80
2023/06/07 04:02:20;;;;;;;11.27;5.82;;;;;;;10.96;90.92;102186.22;5094251;28;20489;-80
2023/06/07 04:04:47;;;;;;;8.93;5.70;;;;;;;10.98;91.01;102193.81;5075657;28;20489;-81
2023/06/07 04:07:16;;;;;;;13.10;5.53;;;;;;;11.01;91.32;102193.00;5091791;28;20072;-80
2023/06/07 04:09:43;;;;;;;18.27;6.43;;;;;;;10.99;90.98;102196.09;5075519;28;20048;-81
2023/06/07 04:12:13;;;;;;;11.60;5.85;;;;;;;11.03;90.73;102196.78;5074761;28;20462;-80
2023/06/07 04:14:40;;;;;;;8.43;5.47;;;;;;;11.05;91.22;102190.28;5092271;28;20122;-81
2023/06/07 04:17:06;;;;;;;11.75;5.47;;;;;;;11.09;90.25;102194.41;5091387;28;20147;-81
2023/06/07 04:19:34;;;;;;;16.95;6.35;;;;;;;11.11;90.85;102191.34;5091861;28;20460;-80
2023/06/07 04:22:04;;;;;;;8.73;5.68;;;;;;;11.15;90.25;102186.69;5092247;28;20045;-80
2023/06/07 04:24:32;;;;;;;12.32;5.90;;;;;;;11.17;90.13;102187.03;5091770;28;20053;-80
2023/06/07 04:27:01;;;;;;;15.30;5.38;;;;;;;11.18;90.27;102186.63;5092265;28;20128;-81
2023/06/07 04:29:27;;;;;;;16.77;6.15;;;;;;;11.22;89.85;102189.97;5074929;28;20045;-80
2023/06/07 04:31:56;;;;;;;14.05;6.30;;;;;;;11.23;89.94;102190.72;5091854;28;20044;-80
2023/06/07 04:34:26;;;;;;;13.15;6.10;;;;;;;11.29;90.04;102181.84;5097462;28;20128;-80
2023/06/07 04:36:52;;;;;;;14.75;6.40;;;;;;;11.38;89.25;102180.56;5092143;28;20055;-81
2023/06/07 04:39:20;;;;;;;18.80;6.55;;;;;;;11.41;89.07;102185.81;5091147;28;20045;-80
2023/06/07 04:41:48;;;;;;;12.60;6.18;;;;;;;11.42;89.18;102187.31;5091892;28;20051;-81
2023/06/07 04:44:27;;;;;;;14.75;6.13;;;;;;;11.44;89.31;102187.66;5073934;28;20084;-81
2023/06/07 04:46:59;;;;;;;12.55;6.38;;;;;;;11.45;89.08;102191.84;5091421;28;20055;-81
2023/06/07 04:49:34;;;;;;;12.57;6.07;;;;;;;11.46;89.33;102197.94;5091239;28;20483;-81
2023/06/07 04:52:02;;;;;;;12.98;6.22;;;;;;;11.44;89.21;102195.66;5091758;28;20524;-80
2023/06/07 04:54:31;;;;;;;11.40;5.75;;;;;;;11.43;89.11;102194.16;5092616;28;20579;-80
2023/06/07 04:57:01;;;;;;;9.00;5.70;;;;;;;11.43;88.57;102191.50;5091514;28;20057;-80
2023/06/07 04:59:34;;;;;;;15.38;5.90;;;;;;;11.42;88.76;102194.56;5090934;28;20072;-80
2023/06/07 05:02:07;;;;;;;10.32;5.45;;;;;;;11.42;88.80;102195.31;5090811;28;20531;-80
2023/06/07 05:04:34;;;;;;;15.63;6.00;;;;;;;11.39;88.92;102204.13;5091354;28;20071;-81
2023/06/07 05:07:02;;;;;;;14.95;5.75;;;;;;;11.38;89.46;102199.22;5093742;28;20411;-81
2023/06/07 05:09:31;;;;;;;15.02;5.53;;;;;;;11.37;89.24;102201.13;5093262;28;20048;-80
2023/06/07 05:12:02;;;;;;;11.73;5.90;;;;;;;11.38;88.93;102194.63;5091376;28;20106;-80
2023/06/07 05:14:30;;;;;;;9.95;5.80;;;;;;;11.42;89.00;102199.91;5090675;28;20366;-81
2023/06/07 05:16:59;;;;;;;14.57;6.10;;;;;;;11.42;88.38;102198.00;5090868;28;20163;-78
2023/06/07 05:19:29;;;;;;;17.02;5.85;;;;;;;11.42;88.99;102202.56;5090798;28;20106;-80
2023/06/07 05:21:56;;;;;;;14.10;6.00;;;;;;;11.40;88.75;102202.97;5091698;28;20052;-79
2023/06/07 05:24:22;;;;;;;9.13;5.50;;;;;;;11.41;88.97;102207.16;5092434;28;20126;-79
2023/06/07 05:26:49;;;;;;;15.43;5.57;;;;;;;11.38;89.01;102213.28;5091059;28;20055;-79
2023/06/07 05:29:16;;;;;;;14.77;5.78;;;;;;;11.41;88.99;102215.16;5092000;28;20040;-79
2023/06/07 05:31:43;;;;;;;11.40;5.32;;;;;;;11.46;88.90;102203.25;5090974;28;20498;-79
2023/06/07 05:34:10;;;;;;;15.88;5.82;;;;;;;11.51;88.89;102202.78;5091494;28;20045;-79
2023/06/07 05:36:39;;;;;;;13.55;6.15;;;;;;;11.57;88.82;102201.91;5091737;28;20103;-80
2023/06/07 05:39:06;;;;;;;14.50;6.03;;;;;;;11.65;88.19;102205.91;5094257;28;20045;-79
2023/06/07 05:41:33;;;;;;;16.77;5.30;;;;;;;11.66;88.04;102209.34;5092901;28;20052;-80
2023/06/07 05:44:00;;;;;;;11.40;5.38;;;;;;;11.69;88.16;102208.50;5090012;28;20045;-79
2023/06/07 05:46:26;;;;;;;17.27;5.90;;;;;;;11.74;87.89;102205.38;5073246;28;20045;-79
2023/06/07 05:48:53;;;;;;;7.38;4.97;;;;;;;11.80;87.27;102211.00;5090559;28;20131;-78
2023/06/07 05:51:23;;;;;;;10.65;5.57;;;;;;;11.88;87.14;102207.78;5074206;28;20472;-82
2023/06/07 05:53:50;;;;;;;14.13;5.35;;;;;;;12.14;86.26;102203.41;5092846;28;20078;-80
2023/06/07 05:56:18;;;;;;;17.02;5.45;;;;;;;12.51;84.86;102202.19;5094144;28;20854;-79
2023/06/07 05:58:45;;;;;;;11.60;5.07;;;;;;;13.13;83.00;102204.91;5095872;28;20040;-83
2023/06/07 06:01:13;;;;;;;12.52;5.32;;;;;;;13.67;80.50;102199.63;5096411;28;20155;-79
2023/06/07 06:03:39;;;;;;;10.02;4.82;;;;;;;14.34;77.09;102202.28;5096412;28;20044;-81
2023/06/07 06:06:17;;;;;;;10.40;4.78;;;;;;;14.38;76.05;102196.81;5094760;28;20079;-81
2023/06/07 06:08:45;;;;;;;11.48;4.75;;;;;;;14.43;75.51;102204.31;5096617;28;20534;-81
2023/06/07 06:11:13;;;;;;;11.52;4.60;;;;;;;14.54;75.58;102200.13;5095202;28;20456;-82
2023/06/07 06:13:40;;;;;;;9.90;4.78;;;;;;;14.71;73.88;102198.06;5099305;28;20483;-81
2023/06/07 06:16:07;;;;;;;10.48;4.45;;;;;;;14.96;73.09;102208.69;5096129;28;20067;-81
2023/06/07 06:18:37;;;;;;;10.00;4.15;;;;;;;15.16;72.31;102210.34;5094989;28;20110;-81
2023/06/07 06:21:04;;;;;;;9.10;4.50;;;;;;;15.30;71.35;102212.53;5094806;28;20557;-85
2023/06/07 06:23:31;;;;;;;10.65;4.50;;;;;;;15.51;70.81;102213.72;5096034;28;20051;-85
2023/06/07 06:25:58;;;;;;;10.77;4.93;;;;;;;15.67;70.24;102211.59;5094618;28;20527;-82
2023/06/07 06:28:24;;;;;;;13.13;4.10;;;;;;;15.81;69.54;102223.03;5093788;28;20055;-82
2023/06/07 06:30:51;;;;;;;12.25;4.72;;;;;;;16.03;69.10;102218.34;5096074;28;20159;-83
2023/06/07 06:33:17;;;;;;;15.43;4.65;;;;;;;16.03;68.43;102218.34;5094550;28;20044;-82
2023/06/07 06:35:44;;;;;;;7.60;4.05;;;;;;;16.01;67.83;102218.03;5095938;28;20119;-82
2023/06/07 06:38:11;;;;;;;11.98;4.55;;;;;;;15.82;67.77;102221.84;5095688;28;20059;-82
2023/06/07 06:40:38;;;;;;;9.60;4.53;;;;;;;15.80;68.76;102224.22;5096172;28;20048;-82
2023/06/07 06:43:05;;;;;;;11.65;4.32;;;;;;;15.72;68.31;102221.03;5095534;28;20055;-84
2023/06/07 06:45:35;;;;;;;11.55;4.45;;;;;;;15.66;68.44;102217.41;5082982;28;20046;-80
2023/06/07 06:48:01;;;;;;;10.15;4.60;;;;;;;15.73;68.43;102217.16;5096910;28;20075;-83
2023/06/07 06:50:29;;;;;;;9.23;4.70;;;;;;;15.76;69.11;102224.34;5095280;28;20420;-81
2023/06/07 06:52:59;;;;;;;13.60;4.70;;;;;;;15.92;68.15;102223.38;5095834;28;20127;-83
2023/06/07 06:55:25;;;;;;;11.95;4.30;;;;;;;16.12;67.39;102231.81;5094042;28;20044;-80
2023/06/07 06:57:52;;;;;;;13.25;4.93;;;;;;;16.16;67.53;102223.63;5095020;28;20052;-79
2023/06/07 07:00:19;;;;;;;11.45;4.00;;;;;;;16.11;66.99;102227.63;5095086;28;20044;-80
2023/06/07 07:02:45;;;;;;;12.15;4.45;;;;;;;16.04;67.17;102227.16;5093761;28;20604;-80
2023/06/07 07:05:13;;;;;;;8.55;4.18;;;;;;;15.94;67.08;102240.56;5095063;28;20075;-81
2023/06/07 07:07:39;;;;;;;12.75;4.10;;;;;;;15.84;68.04;102236.31;5095634;28;20037;-82
2023/06/07 07:10:07;;;;;;;14.27;4.32;;;;;;;15.98;68.16;102235.81;5095008;28;20466;-82
2023/06/07 07:12:37;;;;;;;13.02;3.88;;;;;;;16.19;67.83;102244.22;5092900;28;20430;-82
2023/06/07 07:15:05;;;;;;;11.73;4.10;;;;;;;16.37;66.77;102238.94;5095570;28;20045;-87
2023/06/07 07:17:31;;;;;;;19.40;4.35;;;;;;;16.53;66.27;102238.66;5095170;28;20051;-82
2023/06/07 07:19:58;;;;;;;7.00;4.45;;;;;;;16.71;65.85;102242.63;5097471;28;20154;-82
2023/06/07 07:22:25;;;;;;;7.00;3.97;;;;;;;16.90;64.82;102252.94;5095320;28;20278;-83
2023/06/07 07:24:55;;;;;;;8.68;3.95;;;;;;;17.15;63.40;102251.94;5095247;28;20461;-81
2023/06/07 07:27:22;;;;;;;9.50;3.92;;;;;;;17.28;62.72;102254.47;5093173;28;20041;-81
2023/06/07 07:29:49;;;;;;;9.55;4.45;;;;;;;17.43;62.78;102257.28;5076898;28;20049;-83
2023/06/07 07:32:16;;;;;;;9.93;4.38;;;;;;;17.59;62.23;102254.28;5094407;28;20482;-83
2023/06/07 07:34:42;;;;;;;9.55;3.85;;;;;;;17.77;62.02;102251.56;5093403;28;20056;-81
2023/06/07 07:37:09;;;;;;;15.05;3.95;;;;;;;17.78;62.30;102255.00;5093525;28;20061;-85
2023/06/07 07:39:36;;;;;;;8.70;4.15;;;;;;;17.78;60.78;102250.38;5093771;28;20033;-77
2023/06/07 07:42:05;;;;;;;10.00;4.38;;;;;;;17.75;61.68;102247.84;5093302;28;20071;-76
2023/06/07 07:44:33;;;;;;;9.40;4.25;;;;;;;17.82;60.63;102240.19;5094539;28;20047;-76
2023/06/07 07:47:00;;;;;;;9.85;4.20;;;;;;;17.93;60.52;102231.63;5093366;28;20078;-77
2023/06/07 07:49:27;;;;;;;16.67;3.92;;;;;;;18.15;60.52;102237.53;5094722;28;20050;-77
2023/06/07 07:51:53;;;;;;;10.20;3.80;;;;;;;18.34;59.69;102240.88;5094827;28;20490;-77
2023/06/07 07:54:23;;;;;;;8.93;3.85;;;;;;;18.38;59.11;102249.56;5092518;28;20048;-76
2023/06/07 07:56:49;;;;;;;8.65;4.18;;;;;;;18.49;59.00;102252.47;5093204;28;20055;-77
2023/06/07 07:59:16;;;;;;;11.20;4.45;;;;;;;18.39;59.72;102239.53;5092572;28;20049;-76
2023/06/07 08:01:45;;;;;;;7.30;3.97;;;;;;;18.72;59.10;102245.63;5093521;28;20046;-77
2023/06/07 08:04:11;;;;;;;7.35;3.70;;;;;;;19.26;57.27;102241.00;5092760;28;20114;-76
2023/06/07 08:06:38;;;;;;;14.23;4.10;;;;;;;19.30;56.99;102239.63;5093311;28;20048;-77
2023/06/07 08:09:05;;;;;;;13.18;3.50;;;;;;;19.22;57.25;102232.34;5093719;28;20484;-77
2023/06/07 08:11:32;;;;;;;9.40;4.13;;;;;;;19.32;56.90;102239.16;5094120;28;20049;-76
2023/06/07 08:13:59;;;;;;;9.88;3.97;;;;;;;19.51;56.17;102237.81;5092017;28;20047;-77
2023/06/07 08:16:25;;;;;;;10.60;3.70;;;;;;;19.41;56.29;102238.31;5092484;28;20555;-77
2023/06/07 08:18:56;;;;;;;8.30;3.78;;;;;;;19.57;55.05;102235.94;5093046;28;20045;-77
2023/06/07 08:21:24;;;;;;;12.40;4.07;;;;;;;19.51;54.93;102237.81;5107052;28;20040;-78
2023/06/07 08:23:54;;;;;;;10.55;3.97;;;;;;;19.54;55.00;102234.19;5112347;28;20052;-77
2023/06/07 08:26:22;;;;;;;9.98;4.30;;;;;;;19.39;55.65;102238.78;5113543;28;20523;-77
2023/06/07 08:28:48;;;;;;;8.25;3.88;;;;;;;19.36;55.21;102236.28;5114372;27;20119;-77
2023/06/07 08:31:15;;;;;;;10.57;4.13;;;;;;;19.59;54.48;102232.78;5113638;27;20052;-77
2023/06/07 08:33:42;;;;;;;11.02;4.15;;;;;;;20.01;54.52;102239.78;5112699;28;20535;-77
2023/06/07 08:36:08;;;;;;;7.65;4.28;;;;;;;20.13;53.47;102231.38;5112234;28;20482;-77
2023/06/07 08:38:39;;;;;;;7.95;4.53;;;;;;;20.11;52.77;102224.94;5112568;28;20055;-77
2023/06/07 08:41:06;;;;;;;10.07;4.90;;;;;;;19.90;52.92;102224.91;5112111;28;20135;-77
2023/06/07 08:43:33;;;;;;;12.90;4.57;;;;;;;19.76;53.49;102241.13;5112703;28;20085;-77
2023/06/07 08:46:03;;;;;;;12.30;4.20;;;;;;;19.77;53.45;102242.63;5112355;28;20044;-77
2023/06/07 08:48:33;;;;;;;9.43;4.30;;;;;;;19.92;53.34;102236.00;5114039;27;20048;-77
2023/06/07 08:51:01;;;;;;;11.57;4.53;;;;;;;20.03;52.35;102240.06;5095239;28;20485;-77
2023/06/07 08:53:45;;;;;;;10.73;4.30;;;;;;;20.06;53.01;102231.75;5111830;28;20465;-77
2023/06/07 08:56:12;;;;;;;6.75;4.25;;;;;;;20.51;52.17;102240.50;5112044;28;20048;-77
2023/06/07 08:58:43;;;;;;;7.90;4.43;;;;;;;20.85;52.43;102242.41;5112758;28;20052;-78
2023/06/07 09:01:10;;;;;;;12.38;5.15;;;;;;;20.99;50.74;102243.53;5111680;28;20044;-77
2023/06/07 09:03:36;;;;;;;9.20;4.05;;;;;;;21.11;49.29;102245.16;5095070;28;20049;-77
2023/06/07 09:06:03;;;;;;;6.80;3.83;;;;;;;21.28;49.54;102239.91;5113454;27;20055;-77
2023/06/07 09:08:31;;;;;;;6.75;4.30;;;;;;;21.48;49.31;102247.25;5113293;27;20036;-77
2023/06/07 09:10:57;;;;;;;8.95;4.35;;;;;;;21.53;49.25;102251.97;5109773;28;20066;-77
2023/06/07 09:13:24;;;;;;;13.23;4.60;;;;;;;21.61;49.20;102245.63;5090940;28;20053;-77
2023/06/07 09:15:52;;;;;;;8.07;4.13;;;;;;;21.70;47.89;102244.72;5092962;28;20079;-77
2023/06/07 09:18:19;;;;;;;11.90;3.92;;;;;;;21.65;47.58;102239.97;5074200;28;20048;-76
2023/06/07 09:20:46;;;;;;;8.75;4.15;;;;;;;21.66;48.13;102238.00;5092909;28;20047;-82
2023/06/07 09:23:16;;;;;;;13.23;4.78;;;;;;;21.85;48.09;102241.88;5092128;28;20080;-79
2023/06/07 09:25:46;;;;;;;11.15;4.78;;;;;;;22.14;47.52;102233.44;5093057;28;20044;-78
2023/06/07 09:28:14;;;;;;;7.95;4.90;;;;;;;22.12;47.03;102243.28;5092721;28;20489;-79
2023/06/07 09:30:54;;;;;;;11.43;4.78;;;;;;;22.01;47.92;102235.81;5094911;28;20143;-79
2023/06/07 09:33:34;;;;;;;7.90;4.47;;;;;;;22.40;47.37;102238.75;5095035;28;20053;-80
2023/06/07 09:36:09;;;;;;;12.48;5.00;;;;;;;22.43;46.75;102231.63;5096096;28;20052;-79
2023/06/07 09:38:36;;;;;;;11.82;5.05;;;;;;;22.52;45.93;102231.41;5095256;28;20057;-84
2023/06/07 09:41:05;;;;;;;11.73;4.90;;;;;;;22.55;45.15;102238.59;5095447;28;20036;-82
2023/06/07 09:43:47;;;;;;;10.10;4.70;;;;;;;22.63;46.38;102234.19;5095699;28;20616;-79
2023/06/07 09:46:14;;;;;;;19.73;13.02;;;;;;;22.64;45.46;102224.81;5076306;28;20045;-78
2023/06/07 09:48:44;;;;;;;7.00;4.63;;;;;;;22.49;46.88;102226.97;5096536;28;20482;-79
2023/06/07 09:51:11;;;;;;;8.70;4.60;;;;;;;22.69;46.06;102226.81;5094981;28;20132;-79
2023/06/07 09:54:00;;;;;;;8.80;4.60;;;;;;;22.56;46.16;102229.22;5095328;28;20080;-80
2023/06/07 09:56:27;;;;;;;10.07;4.80;;;;;;;22.85;46.18;102230.81;5096192;28;20044;-84
2023/06/07 09:59:08;;;;;;;9.25;4.90;;;;;;;23.20;46.16;102230.38;5096375;28;20048;-84
2023/06/07 10:01:41;;;;;;;;;;;;;;;23.43;47.14;102226.47;5096547;28;20040;-83
2023/06/07 10:04:11;;;;;;;11.88;5.15;;;;;;;23.52;45.47;102230.91;5095067;28;20811;-84
2023/06/07 10:06:44;;;;;;;9.15;5.18;;;;;;;23.54;45.04;102228.47;5102828;28;20497;-84
2023/06/07 10:09:12;;;;;;;11.85;4.88;;;;;;;23.74;44.14;102222.00;5113546;28;20048;-84
2023/06/07 10:11:44;;;;;;;7.55;4.82;;;;;;;24.01;43.09;102217.75;5096177;28;20089;-81
2023/06/07 10:14:13;;;;;;;15.65;5.15;;;;;;;23.62;43.01;102221.28;5096438;28;20051;-81
2023/06/07 10:16:46;;;;;;;9.45;4.82;;;;;;;23.48;44.31;102220.28;5095819;28;20049;-79
2023/06/07 10:19:20;;;;;;;8.50;5.03;;;;;;;23.61;44.00;102212.38;5095839;28;20052;-80
2023/06/07 10:21:50;;;;;;;11.35;5.03;;;;;;;23.60;44.14;102210.91;5095999;28;20456;-82
2023/06/07 10:24:22;;;;;;;7.00;4.85;;;;;;;23.72;43.94;102208.19;5094304;28;20049;-79
2023/06/07 10:26:59;;;;;;;8.77;5.57;;;;;;;23.99;43.96;102209.38;5095903;28;20124;-79
2023/06/07 10:29:36;;;;;;;9.60;4.95;;;;;;;24.41;43.51;102206.28;5095480;28;20045;-80
2023/06/07 10:32:09;;;;;;;7.50;4.53;;;;;;;24.59;42.85;102199.50;5094706;28;20476;-79
2023/06/07 10:34:37;;;;;;;13.40;4.97;;;;;;;24.75;42.18;102198.69;5095340;28;20041;-80
2023/06/07 10:37:07;;;;;;;11.98;4.68;;;;;;;25.02;42.10;102199.03;5095806;28;20506;-79
2023/06/07 10:39:36;;;;;;;7.97;4.63;;;;;;;25.04;41.66;102207.44;5095425;28;20436;-81
2023/06/07 10:42:03;;;;;;;8.60;5.32;;;;;;;24.72;41.28;102198.97;5095258;28;20049;-79
2023/06/07 10:44:30;;;;;;;5.47;4.60;;;;;;;24.44;41.47;102196.38;5095466;28;20170;-78
2023/06/07 10:47:22;;;;;;;12.18;5.07;;;;;;;24.62;41.90;102195.78;5074059;28;20136;-79
2023/06/07 10:49:49;;;;;;;14.05;4.75;;;;;;;24.95;41.09;102197.56;5090097;28;20390;-79
2023/06/07 10:52:16;;;;;;;14.60;5.22;;;;;;;25.13;40.92;102196.97;5086798;28;20055;-79
2023/06/07 10:54:44;;;;;;;13.27;4.65;;;;;;;25.19;40.14;102194.22;5095628;28;20049;-80
2023/06/07 10:57:11;;;;;;;9.50;4.90;;;;;;;25.28;40.49;102182.97;5094863;28;20079;-78
2023/06/07 10:59:39;;;;;;;11.55;4.70;;;;;;;24.93;40.84;102189.16;5095051;28;20041;-81
2023/06/07 11:02:23;;;;;;;7.75;5.03;;;;;;;25.08;41.56;102197.00;5095045;28;20540;-79
2023/06/07 11:04:57;;;;;;;6.88;5.05;;;;;;;25.44;40.03;102193.00;5094950;28;20045;-79
2023/06/07 11:07:30;;;;;;;10.30;5.03;;;;;;;25.51;39.86;102187.00;5094731;28;20072;-79
2023/06/07 11:10:01;;;;;;;7.72;4.75;;;;;;;25.44;39.76;102184.81;5094313;28;20045;-79
2023/06/07 11:12:40;;;;;;;16.42;5.53;;;;;;;25.61;40.65;102187.38;5094473;28;20048;-79
2023/06/07 11:15:35;;;;;;;6.97;5.38;;;;;;;25.80;39.27;102182.75;5094250;28;20521;-81
2023/06/07 11:18:07;;;;;;;9.20;4.70;;;;;;;25.74;39.36;102189.50;5094708;28;20421;-82
2023/06/07 11:20:41;;;;;;;9.32;5.25;;;;;;;25.83;38.02;102187.19;5093538;28;20045;-85
2023/06/07 11:23:25;;;;;;;11.07;4.78;;;;;;;25.51;39.66;102175.34;5094863;28;20051;-83
2023/06/07 11:26:17;;;;;;;7.60;4.80;;;;;;;25.59;40.13;102171.53;5095178;28;20501;-82
2023/06/07 11:28:43;;;;;;;7.85;5.25;;;;;;;25.81;40.11;102165.16;5088025;28;20071;-82